sensor_id;sensor_type;location;lat;lon;timestamp;P1;durP1;ratioP1;P2;durP2;ratioP2
25982;SDS011;13773;48.868;10.730;2023-07-13T00:00:11;10.20;;;5.53;;
25982;SDS011;13773;48.868;10.730;2023-07-13T00:02:40;9.60;;;5.53;;
25982;SDS011;13773;48.868;10.730;2023-07-13T00:05:06;6.50;;;5.63;;
25982;SDS011;13773;48.868;10.730;2023-07-13T00:07:32;14.10;;;5.90;;
25982;SDS011;13773;48.868;10.730;2023-07-13T00:09:58;10.97;;;5.90;;
25982;SDS011;13773;48.868;10.730;2023-07-13T00:12:28;8.10;;;5.53;;
25982;SDS011;13773;48.868;10.730;2023-07-13T00:14:56;10.63;;;5.70;;
25982;SDS011;13773;48.868;10.730;2023-07-13T00:17:23;12.27;;;6.00;;
25982;SDS011;13773;48.868;10.730;2023-07-13T00:19:49;10.80;;;5.10;;
25982;SDS011;13773;48.868;10.730;2023-07-13T00:22:15;14.07;;;6.00;;
25982;SDS011;13773;48.868;10.730;2023-07-13T00:24:43;8.13;;;4.93;;
25982;SDS011;13773;48.868;10.730;2023-07-13T00:27:09;8.67;;;5.20;;
25982;SDS011;13773;48.868;10.730;2023-07-13T00:29:35;7.73;;;5.20;;
25982;SDS011;13773;48.868;10.730;2023-07-13T00:32:02;6.17;;;5.03;;
25982;SDS011;13773;48.868;10.730;2023-07-13T00:34:30;6.07;;;4.70;;
25982;SDS011;13773;48.868;10.730;2023-07-13T00:36:56;5.37;;;4.20;;
25982;SDS011;13773;48.868;10.730;2023-07-13T00:39:21;7.87;;;4.60;;
25982;SDS011;13773;48.868;10.730;2023-07-13T00:41:47;10.73;;;4.63;;
25982;SDS011;13773;48.868;10.730;2023-07-13T00:44:14;8.27;;;4.57;;
25982;SDS011;13773;48.868;10.730;2023-07-13T00:46:41;9.60;;;4.13;;
25982;SDS011;13773;48.868;10.730;2023-07-13T00:49:07;9.57;;;3.97;;
25982;SDS011;13773;48.868;10.730;2023-07-13T00:51:44;6.20;;;3.87;;
25982;SDS011;13773;48.868;10.730;2023-07-13T00:54:44;8.50;;;4.27;;
25982;SDS011;13773;48.868;10.730;2023-07-13T00:57:12;7.10;;;3.73;;
25982;SDS011;13773;48.868;10.730;2023-07-13T00:59:42;5.17;;;3.63;;
25982;SDS011;13773;48.868;10.730;2023-07-13T01:02:10;8.83;;;3.83;;
25982;SDS011;13773;48.868;10.730;2023-07-13T01:04:36;4.70;;;3.47;;
25982;SDS011;13773;48.868;10.730;2023-07-13T01:07:03;6.87;;;3.27;;
25982;SDS011;13773;48.868;10.730;2023-07-13T01:09:31;5.90;;;3.63;;
25982;SDS011;13773;48.868;10.730;2023-07-13T01:11:57;6.13;;;3.47;;
25982;SDS011;13773;48.868;10.730;2023-07-13T01:14:24;5.43;;;3.53;;
25982;SDS011;13773;48.868;10.730;2023-07-13T01:16:50;7.40;;;4.10;;
25982;SDS011;13773;48.868;10.730;2023-07-13T01:21:52;7.20;;;3.33;;
25982;SDS011;13773;48.868;10.730;2023-07-13T01:24:18;6.07;;;4.07;;
25982;SDS011;13773;48.868;10.730;2023-07-13T01:26:44;5.60;;;3.77;;
25982;SDS011;13773;48.868;10.730;2023-07-13T01:29:10;9.17;;;4.07;;
25982;SDS011;13773;48.868;10.730;2023-07-13T01:31:36;4.53;;;3.80;;
25982;SDS011;13773;48.868;10.730;2023-07-13T01:34:02;4.87;;;3.60;;
25982;SDS011;13773;48.868;10.730;2023-07-13T01:36:30;7.43;;;3.93;;
25982;SDS011;13773;48.868;10.730;2023-07-13T01:38:56;9.33;;;4.03;;
25982;SDS011;13773;48.868;10.730;2023-07-13T01:41:21;6.10;;;3.50;;
25982;SDS011;13773;48.868;10.730;2023-07-13T01:43:47;6.67;;;3.97;;
25982;SDS011;13773;48.868;10.730;2023-07-13T01:46:13;5.80;;;4.10;;
25982;SDS011;13773;48.868;10.730;2023-07-13T01:48:38;6.97;;;4.63;;
25982;SDS011;13773;48.868;10.730;2023-07-13T01:51:04;9.00;;;4.30;;
25982;SDS011;13773;48.868;10.730;2023-07-13T01:53:29;9.60;;;4.60;;
25982;SDS011;13773;48.868;10.730;2023-07-13T01:55:55;7.00;;;4.70;;
25982;SDS011;13773;48.868;10.730;2023-07-13T01:58:21;5.47;;;4.07;;
25982;SDS011;13773;48.868;10.730;2023-07-13T02:00:48;9.43;;;4.50;;
25982;SDS011;13773;48.868;10.730;2023-07-13T02:03:15;9.67;;;4.03;;
25982;SDS011;13773;48.868;10.730;2023-07-13T02:05:43;6.23;;;4.17;;
25982;SDS011;13773;48.868;10.730;2023-07-13T02:08:09;4.40;;;3.57;;
25982;SDS011;13773;48.868;10.730;2023-07-13T02:10:35;8.40;;;4.23;;
25982;SDS011;13773;48.868;10.730;2023-07-13T02:13:03;6.93;;;3.90;;
25982;SDS011;13773;48.868;10.730;2023-07-13T02:15:30;5.17;;;3.80;;
25982;SDS011;13773;48.868;10.730;2023-07-13T02:17:56;6.07;;;3.70;;
25982;SDS011;13773;48.868;10.730;2023-07-13T02:20:23;6.03;;;3.43;;
25982;SDS011;13773;48.868;10.730;2023-07-13T02:22:49;6.73;;;3.87;;
25982;SDS011;13773;48.868;10.730;2023-07-13T02:25:15;4.77;;;3.53;;
25982;SDS011;13773;48.868;10.730;2023-07-13T02:27:41;5.90;;;3.33;;
25982;SDS011;13773;48.868;10.730;2023-07-13T02:30:07;8.97;;;3.37;;
25982;SDS011;13773;48.868;10.730;2023-07-13T02:32:33;7.40;;;3.60;;
25982;SDS011;13773;48.868;10.730;2023-07-13T02:35:00;6.50;;;3.53;;
25982;SDS011;13773;48.868;10.730;2023-07-13T02:37:26;8.50;;;3.40;;
25982;SDS011;13773;48.868;10.730;2023-07-13T02:39:51;5.80;;;3.00;;
25982;SDS011;13773;48.868;10.730;2023-07-13T02:42:17;7.73;;;3.30;;
25982;SDS011;13773;48.868;10.730;2023-07-13T02:44:43;10.77;;;3.43;;
25982;SDS011;13773;48.868;10.730;2023-07-13T02:47:08;4.93;;;2.83;;
25982;SDS011;13773;48.868;10.730;2023-07-13T02:49:34;4.00;;;3.23;;
25982;SDS011;13773;48.868;10.730;2023-07-13T02:52:01;5.17;;;2.73;;
25982;SDS011;13773;48.868;10.730;2023-07-13T02:54:27;6.47;;;3.17;;
25982;SDS011;13773;48.868;10.730;2023-07-13T02:56:52;7.27;;;3.07;;
25982;SDS011;13773;48.868;10.730;2023-07-13T02:59:18;5.77;;;3.40;;
25982;SDS011;13773;48.868;10.730;2023-07-13T03:01:44;9.73;;;3.67;;
25982;SDS011;13773;48.868;10.730;2023-07-13T03:04:09;4.20;;;2.90;;
25982;SDS011;13773;48.868;10.730;2023-07-13T03:06:35;5.93;;;3.37;;
25982;SDS011;13773;48.868;10.730;2023-07-13T03:09:01;5.67;;;2.60;;
25982;SDS011;13773;48.868;10.730;2023-07-13T03:11:27;5.50;;;3.10;;
25982;SDS011;13773;48.868;10.730;2023-07-13T03:13:53;6.10;;;3.03;;
25982;SDS011;13773;48.868;10.730;2023-07-13T03:16:19;3.63;;;2.93;;
25982;SDS011;13773;48.868;10.730;2023-07-13T03:18:45;6.80;;;2.60;;
25982;SDS011;13773;48.868;10.730;2023-07-13T03:21:13;5.67;;;2.90;;
25982;SDS011;13773;48.868;10.730;2023-07-13T03:23:39;5.77;;;3.30;;
25982;SDS011;13773;48.868;10.730;2023-07-13T03:26:07;7.40;;;3.53;;
25982;SDS011;13773;48.868;10.730;2023-07-13T03:28:38;6.43;;;3.03;;
25982;SDS011;13773;48.868;10.730;2023-07-13T03:31:06;10.23;;;3.30;;
25982;SDS011;13773;48.868;10.730;2023-07-13T03:33:37;4.00;;;2.83;;
25982;SDS011;13773;48.868;10.730;2023-07-13T03:36:04;3.03;;;2.67;;
25982;SDS011;13773;48.868;10.730;2023-07-13T03:38:31;6.40;;;3.03;;
25982;SDS011;13773;48.868;10.730;2023-07-13T03:40:57;5.10;;;2.77;;
25982;SDS011;13773;48.868;10.730;2023-07-13T03:43:23;6.10;;;2.87;;
25982;SDS011;13773;48.868;10.730;2023-07-13T03:45:48;6.90;;;2.67;;
25982;SDS011;13773;48.868;10.730;2023-07-13T03:48:14;4.27;;;2.60;;
25982;SDS011;13773;48.868;10.730;2023-07-13T03:50:40;4.13;;;2.40;;
25982;SDS011;13773;48.868;10.730;2023-07-13T03:53:06;6.40;;;2.33;;
25982;SDS011;13773;48.868;10.730;2023-07-13T03:55:31;4.70;;;2.17;;
25982;SDS011;13773;48.868;10.730;2023-07-13T03:57:58;5.07;;;2.20;;
25982;SDS011;13773;48.868;10.730;2023-07-13T04:00:43;5.80;;;2.37;;
25982;SDS011;13773;48.868;10.730;2023-07-13T04:03:08;5.40;;;2.50;;
25982;SDS011;13773;48.868;10.730;2023-07-13T04:05:34;4.73;;;2.37;;
25982;SDS011;13773;48.868;10.730;2023-07-13T04:08:01;3.90;;;2.10;;
25982;SDS011;13773;48.868;10.730;2023-07-13T04:10:28;3.90;;;2.27;;
25982;SDS011;13773;48.868;10.730;2023-07-13T04:12:53;4.47;;;2.60;;
25982;SDS011;13773;48.868;10.730;2023-07-13T04:15:19;2.30;;;2.10;;
25982;SDS011;13773;48.868;10.730;2023-07-13T04:17:45;3.27;;;2.20;;
25982;SDS011;13773;48.868;10.730;2023-07-13T04:20:11;2.27;;;1.90;;
25982;SDS011;13773;48.868;10.730;2023-07-13T04:22:36;4.70;;;2.17;;
25982;SDS011;13773;48.868;10.730;2023-07-13T04:25:02;3.73;;;2.40;;
25982;SDS011;13773;48.868;10.730;2023-07-13T04:27:30;3.90;;;1.93;;
25982;SDS011;13773;48.868;10.730;2023-07-13T04:29:55;3.40;;;2.20;;
25982;SDS011;13773;48.868;10.730;2023-07-13T04:32:21;5.97;;;2.30;;
25982;SDS011;13773;48.868;10.730;2023-07-13T04:34:47;4.63;;;2.20;;
25982;SDS011;13773;48.868;10.730;2023-07-13T04:37:18;3.90;;;2.20;;
25982;SDS011;13773;48.868;10.730;2023-07-13T04:39:45;4.90;;;2.40;;
25982;SDS011;13773;48.868;10.730;2023-07-13T04:42:11;3.57;;;2.10;;
25982;SDS011;13773;48.868;10.730;2023-07-13T04:44:37;5.37;;;2.20;;
25982;SDS011;13773;48.868;10.730;2023-07-13T04:47:02;6.30;;;2.80;;
25982;SDS011;13773;48.868;10.730;2023-07-13T04:49:28;5.97;;;2.50;;
25982;SDS011;13773;48.868;10.730;2023-07-13T04:51:54;4.63;;;2.50;;
25982;SDS011;13773;48.868;10.730;2023-07-13T04:54:20;4.23;;;2.53;;
25982;SDS011;13773;48.868;10.730;2023-07-13T04:56:46;4.93;;;2.87;;
25982;SDS011;13773;48.868;10.730;2023-07-13T04:59:12;2.70;;;2.13;;
25982;SDS011;13773;48.868;10.730;2023-07-13T05:01:38;5.30;;;2.30;;
25982;SDS011;13773;48.868;10.730;2023-07-13T05:04:04;3.73;;;2.20;;
25982;SDS011;13773;48.868;10.730;2023-07-13T05:06:29;4.23;;;2.03;;
25982;SDS011;13773;48.868;10.730;2023-07-13T05:08:56;2.90;;;2.10;;
25982;SDS011;13773;48.868;10.730;2023-07-13T05:11:22;4.23;;;2.40;;
25982;SDS011;13773;48.868;10.730;2023-07-13T05:13:47;3.43;;;2.50;;
25982;SDS011;13773;48.868;10.730;2023-07-13T05:16:13;3.33;;;2.47;;
25982;SDS011;13773;48.868;10.730;2023-07-13T05:18:39;3.97;;;2.80;;
25982;SDS011;13773;48.868;10.730;2023-07-13T05:21:05;6.70;;;2.60;;
25982;SDS011;13773;48.868;10.730;2023-07-13T05:23:33;5.57;;;2.33;;
25982;SDS011;13773;48.868;10.730;2023-07-13T05:26:01;6.03;;;2.50;;
25982;SDS011;13773;48.868;10.730;2023-07-13T05:28:30;3.63;;;2.17;;
25982;SDS011;13773;48.868;10.730;2023-07-13T05:30:56;5.47;;;2.43;;
25982;SDS011;13773;48.868;10.730;2023-07-13T05:33:22;6.60;;;2.13;;
25982;SDS011;13773;48.868;10.730;2023-07-13T05:35:50;5.80;;;2.30;;
25982;SDS011;13773;48.868;10.730;2023-07-13T05:38:16;2.50;;;2.07;;
25982;SDS011;13773;48.868;10.730;2023-07-13T05:40:45;4.17;;;1.90;;
25982;SDS011;13773;48.868;10.730;2023-07-13T05:43:11;3.63;;;2.13;;
25982;SDS011;13773;48.868;10.730;2023-07-13T05:45:38;3.03;;;2.07;;
25982;SDS011;13773;48.868;10.730;2023-07-13T05:48:05;3.27;;;2.03;;
25982;SDS011;13773;48.868;10.730;2023-07-13T05:50:31;3.17;;;2.10;;
25982;SDS011;13773;48.868;10.730;2023-07-13T05:52:57;2.80;;;2.00;;
25982;SDS011;13773;48.868;10.730;2023-07-13T05:55:23;3.10;;;1.97;;
25982;SDS011;13773;48.868;10.730;2023-07-13T05:57:49;4.20;;;2.23;;
25982;SDS011;13773;48.868;10.730;2023-07-13T06:00:14;3.53;;;2.00;;
25982;SDS011;13773;48.868;10.730;2023-07-13T06:02:41;3.83;;;2.03;;
25982;SDS011;13773;48.868;10.730;2023-07-13T06:05:07;2.10;;;1.70;;
25982;SDS011;13773;48.868;10.730;2023-07-13T06:07:33;4.03;;;2.23;;
25982;SDS011;13773;48.868;10.730;2023-07-13T06:09:58;2.07;;;1.80;;
25982;SDS011;13773;48.868;10.730;2023-07-13T06:12:24;3.63;;;1.97;;
25982;SDS011;13773;48.868;10.730;2023-07-13T06:14:51;3.90;;;2.30;;
25982;SDS011;13773;48.868;10.730;2023-07-13T06:17:17;3.73;;;2.57;;
25982;SDS011;13773;48.868;10.730;2023-07-13T06:19:43;5.10;;;2.23;;
25982;SDS011;13773;48.868;10.730;2023-07-13T06:22:09;4.43;;;2.27;;
25982;SDS011;13773;48.868;10.730;2023-07-13T06:24:35;3.77;;;2.47;;
25982;SDS011;13773;48.868;10.730;2023-07-13T06:27:00;4.67;;;2.30;;
25982;SDS011;13773;48.868;10.730;2023-07-13T06:29:26;4.70;;;2.53;;
25982;SDS011;13773;48.868;10.730;2023-07-13T06:31:53;4.17;;;2.33;;
25982;SDS011;13773;48.868;10.730;2023-07-13T06:34:18;4.27;;;2.03;;
25982;SDS011;13773;48.868;10.730;2023-07-13T06:36:44;3.47;;;2.20;;
25982;SDS011;13773;48.868;10.730;2023-07-13T06:39:09;3.03;;;2.10;;
25982;SDS011;13773;48.868;10.730;2023-07-13T06:41:35;4.30;;;2.17;;
25982;SDS011;13773;48.868;10.730;2023-07-13T06:44:01;3.43;;;2.30;;
25982;SDS011;13773;48.868;10.730;2023-07-13T06:46:28;3.17;;;1.93;;
25982;SDS011;13773;48.868;10.730;2023-07-13T06:48:55;3.97;;;2.00;;
25982;SDS011;13773;48.868;10.730;2023-07-13T06:51:21;2.80;;;2.17;;
25982;SDS011;13773;48.868;10.730;2023-07-13T06:53:47;3.00;;;2.07;;
25982;SDS011;13773;48.868;10.730;2023-07-13T06:56:12;3.77;;;2.00;;
25982;SDS011;13773;48.868;10.730;2023-07-13T06:58:39;2.67;;;1.93;;
25982;SDS011;13773;48.868;10.730;2023-07-13T07:01:05;4.20;;;1.80;;
25982;SDS011;13773;48.868;10.730;2023-07-13T07:03:31;4.47;;;2.40;;
25982;SDS011;13773;48.868;10.730;2023-07-13T07:06:17;3.47;;;1.87;;
25982;SDS011;13773;48.868;10.730;2023-07-13T07:08:44;3.00;;;1.90;;
25982;SDS011;13773;48.868;10.730;2023-07-13T07:11:16;4.33;;;2.00;;
25982;SDS011;13773;48.868;10.730;2023-07-13T07:13:43;3.27;;;1.90;;
25982;SDS011;13773;48.868;10.730;2023-07-13T07:16:09;3.97;;;2.07;;
25982;SDS011;13773;48.868;10.730;2023-07-13T07:18:35;5.70;;;1.90;;
25982;SDS011;13773;48.868;10.730;2023-07-13T07:21:00;4.40;;;1.90;;
25982;SDS011;13773;48.868;10.730;2023-07-13T07:23:28;4.93;;;2.13;;
25982;SDS011;13773;48.868;10.730;2023-07-13T07:25:53;3.60;;;1.97;;
25982;SDS011;13773;48.868;10.730;2023-07-13T07:28:19;2.53;;;1.77;;
25982;SDS011;13773;48.868;10.730;2023-07-13T07:30:45;4.57;;;2.03;;
25982;SDS011;13773;48.868;10.730;2023-07-13T07:33:11;2.93;;;1.63;;
25982;SDS011;13773;48.868;10.730;2023-07-13T07:35:38;4.20;;;1.67;;
25982;SDS011;13773;48.868;10.730;2023-07-13T07:38:03;3.43;;;1.90;;
25982;SDS011;13773;48.868;10.730;2023-07-13T07:40:29;3.43;;;1.90;;
25982;SDS011;13773;48.868;10.730;2023-07-13T07:42:56;3.73;;;2.27;;
25982;SDS011;13773;48.868;10.730;2023-07-13T07:45:22;4.57;;;2.23;;
25982;SDS011;13773;48.868;10.730;2023-07-13T07:47:48;4.10;;;1.90;;
25982;SDS011;13773;48.868;10.730;2023-07-13T07:50:14;3.27;;;1.90;;
25982;SDS011;13773;48.868;10.730;2023-07-13T07:52:40;4.30;;;1.90;;
25982;SDS011;13773;48.868;10.730;2023-07-13T07:55:07;4.83;;;2.00;;
25982;SDS011;13773;48.868;10.730;2023-07-13T07:57:33;2.17;;;1.90;;
25982;SDS011;13773;48.868;10.730;2023-07-13T07:59:59;3.27;;;1.80;;
25982;SDS011;13773;48.868;10.730;2023-07-13T08:02:25;4.17;;;2.10;;
25982;SDS011;13773;48.868;10.730;2023-07-13T08:04:51;4.23;;;1.97;;
25982;SDS011;13773;48.868;10.730;2023-07-13T08:07:17;4.17;;;2.30;;
25982;SDS011;13773;48.868;10.730;2023-07-13T08:09:43;6.23;;;1.70;;
25982;SDS011;13773;48.868;10.730;2023-07-13T08:12:09;3.63;;;1.97;;
25982;SDS011;13773;48.868;10.730;2023-07-13T08:14:35;3.67;;;1.90;;
25982;SDS011;13773;48.868;10.730;2023-07-13T08:17:00;6.53;;;2.07;;
25982;SDS011;13773;48.868;10.730;2023-07-13T08:19:26;3.77;;;2.07;;
25982;SDS011;13773;48.868;10.730;2023-07-13T08:21:52;2.23;;;1.57;;
25982;SDS011;13773;48.868;10.730;2023-07-13T08:24:18;3.00;;;1.70;;
25982;SDS011;13773;48.868;10.730;2023-07-13T08:26:46;2.70;;;2.03;;
25982;SDS011;13773;48.868;10.730;2023-07-13T08:29:13;4.87;;;2.00;;
25982;SDS011;13773;48.868;10.730;2023-07-13T08:31:42;3.27;;;1.73;;
25982;SDS011;13773;48.868;10.730;2023-07-13T08:34:07;3.80;;;1.90;;
25982;SDS011;13773;48.868;10.730;2023-07-13T08:36:33;4.30;;;1.80;;
25982;SDS011;13773;48.868;10.730;2023-07-13T08:38:59;3.23;;;1.63;;
25982;SDS011;13773;48.868;10.730;2023-07-13T08:41:24;2.90;;;1.60;;
25982;SDS011;13773;48.868;10.730;2023-07-13T08:43:51;4.60;;;1.87;;
25982;SDS011;13773;48.868;10.730;2023-07-13T08:48:51;2.10;;;1.57;;
25982;SDS011;13773;48.868;10.730;2023-07-13T08:51:27;4.63;;;1.60;;
25982;SDS011;13773;48.868;10.730;2023-07-13T08:54:16;2.70;;;1.40;;
25982;SDS011;13773;48.868;10.730;2023-07-13T08:56:47;3.33;;;1.60;;
25982;SDS011;13773;48.868;10.730;2023-07-13T08:59:18;4.17;;;1.50;;
25982;SDS011;13773;48.868;10.730;2023-07-13T09:15:28;2.97;;;1.17;;
25982;SDS011;13773;48.868;10.730;2023-07-13T09:18:42;5.17;;;1.50;;
25982;SDS011;13773;48.868;10.730;2023-07-13T09:21:00;2.90;;;1.20;;
25982;SDS011;13773;48.868;10.730;2023-07-13T09:23:48;2.97;;;1.37;;
25982;SDS011;13773;48.868;10.730;2023-07-13T09:26:21;3.47;;;1.30;;
25982;SDS011;13773;48.868;10.730;2023-07-13T09:28:49;3.37;;;1.37;;
25982;SDS011;13773;48.868;10.730;2023-07-13T09:31:37;2.70;;;1.20;;
25982;SDS011;13773;48.868;10.730;2023-07-13T09:34:09;3.13;;;1.47;;
25982;SDS011;13773;48.868;10.730;2023-07-13T09:36:36;4.63;;;1.63;;
25982;SDS011;13773;48.868;10.730;2023-07-13T09:41:44;3.53;;;1.40;;
25982;SDS011;13773;48.868;10.730;2023-07-13T09:44:17;2.67;;;1.37;;
25982;SDS011;13773;48.868;10.730;2023-07-13T09:46:54;3.40;;;1.60;;
25982;SDS011;13773;48.868;10.730;2023-07-13T09:49:24;2.87;;;1.50;;
25982;SDS011;13773;48.868;10.730;2023-07-13T09:51:57;2.63;;;1.43;;
25982;SDS011;13773;48.868;10.730;2023-07-13T09:54:27;3.00;;;1.43;;
25982;SDS011;13773;48.868;10.730;2023-07-13T09:56:56;3.70;;;1.73;;
25982;SDS011;13773;48.868;10.730;2023-07-13T09:59:33;3.27;;;1.40;;
25982;SDS011;13773;48.868;10.730;2023-07-13T10:02:01;2.93;;;1.50;;
25982;SDS011;13773;48.868;10.730;2023-07-13T10:04:47;2.97;;;1.33;;
25982;SDS011;13773;48.868;10.730;2023-07-13T10:07:43;2.50;;;1.43;;
25982;SDS011;13773;48.868;10.730;2023-07-13T10:10:18;3.00;;;1.40;;
25982;SDS011;13773;48.868;10.730;2023-07-13T10:12:48;2.73;;;1.57;;
25982;SDS011;13773;48.868;10.730;2023-07-13T10:15:17;4.07;;;1.70;;
25982;SDS011;13773;48.868;10.730;2023-07-13T10:17:47;5.07;;;1.60;;
25982;SDS011;13773;48.868;10.730;2023-07-13T10:20:14;2.83;;;1.50;;
25982;SDS011;13773;48.868;10.730;2023-07-13T10:25:34;2.83;;;1.50;;
25982;SDS011;13773;48.868;10.730;2023-07-13T10:28:04;2.53;;;1.50;;
25982;SDS011;13773;48.868;10.730;2023-07-13T10:30:35;1.63;;;1.10;;
25982;SDS011;13773;48.868;10.730;2023-07-13T10:33:10;2.30;;;1.37;;
25982;SDS011;13773;48.868;10.730;2023-07-13T10:35:39;4.20;;;1.70;;
25982;SDS011;13773;48.868;10.730;2023-07-13T10:38:10;3.37;;;1.77;;
25982;SDS011;13773;48.868;10.730;2023-07-13T10:43:16;3.57;;;1.27;;
25982;SDS011;13773;48.868;10.730;2023-07-13T10:45:45;2.70;;;1.50;;
25982;SDS011;13773;48.868;10.730;2023-07-13T10:48:15;2.00;;;1.23;;
25982;SDS011;13773;48.868;10.730;2023-07-13T10:50:43;2.72;;;1.40;;
25982;SDS011;13773;48.868;10.730;2023-07-13T10:53:30;2.92;;;1.50;;
25982;SDS011;13773;48.868;10.730;2023-07-13T10:56:01;2.60;;;1.50;;
25982;SDS011;13773;48.868;10.730;2023-07-13T11:01:09;4.47;;;1.38;;
25982;SDS011;13773;48.868;10.730;2023-07-13T11:03:38;2.42;;;1.30;;
25982;SDS011;13773;48.868;10.730;2023-07-13T11:09:18;3.80;;;1.50;;
25982;SDS011;13773;48.868;10.730;2023-07-13T11:12:03;2.40;;;1.33;;
25982;SDS011;13773;48.868;10.730;2023-07-13T11:14:39;3.65;;;1.50;;
25982;SDS011;13773;48.868;10.730;2023-07-13T11:20:08;3.38;;;1.20;;
25982;SDS011;13773;48.868;10.730;2023-07-13T11:22:45;3.63;;;1.40;;
25982;SDS011;13773;48.868;10.730;2023-07-13T11:28:04;4.35;;;1.75;;
25982;SDS011;13773;48.868;10.730;2023-07-13T11:30:43;2.60;;;1.38;;
25982;SDS011;13773;48.868;10.730;2023-07-13T11:33:28;2.65;;;1.35;;
25982;SDS011;13773;48.868;10.730;2023-07-13T11:36:17;2.92;;;1.50;;
25982;SDS011;13773;48.868;10.730;2023-07-13T11:39:32;3.05;;;1.40;;
25982;SDS011;13773;48.868;10.730;2023-07-13T11:41:47;3.53;;;1.58;;
25982;SDS011;13773;48.868;10.730;2023-07-13T11:44:21;4.30;;;1.20;;
25982;SDS011;13773;48.868;10.730;2023-07-13T11:46:50;1.83;;;1.17;;
25982;SDS011;13773;48.868;10.730;2023-07-13T11:49:19;2.50;;;1.30;;
25982;SDS011;13773;48.868;10.730;2023-07-13T11:51:46;2.35;;;1.30;;
25982;SDS011;13773;48.868;10.730;2023-07-13T11:54:26;2.40;;;1.08;;
25982;SDS011;13773;48.868;10.730;2023-07-13T11:59:56;2.53;;;1.67;;
25982;SDS011;13773;48.868;10.730;2023-07-13T12:02:35;2.85;;;1.30;;
25982;SDS011;13773;48.868;10.730;2023-07-13T12:05:03;2.67;;;1.13;;
25982;SDS011;13773;48.868;10.730;2023-07-13T12:07:31;3.10;;;1.33;;
25982;SDS011;13773;48.868;10.730;2023-07-13T12:10:40;3.25;;;1.48;;
25982;SDS011;13773;48.868;10.730;2023-07-13T12:15:23;3.27;;;1.67;;
25982;SDS011;13773;48.868;10.730;2023-07-13T12:17:53;2.22;;;1.42;;
25982;SDS011;13773;48.868;10.730;2023-07-13T12:20:26;2.38;;;1.10;;
25982;SDS011;13773;48.868;10.730;2023-07-13T12:22:54;2.58;;;1.20;;
25982;SDS011;13773;48.868;10.730;2023-07-13T12:25:22;2.08;;;1.30;;
25982;SDS011;13773;48.868;10.730;2023-07-13T12:27:49;4.25;;;1.20;;
25982;SDS011;13773;48.868;10.730;2023-07-13T12:33:01;3.13;;;1.40;;
25982;SDS011;13773;48.868;10.730;2023-07-13T12:35:38;1.90;;;1.40;;
25982;SDS011;13773;48.868;10.730;2023-07-13T12:38:10;3.55;;;1.50;;
25982;SDS011;13773;48.868;10.730;2023-07-13T12:40:37;2.50;;;1.50;;
25982;SDS011;13773;48.868;10.730;2023-07-13T12:43:05;1.80;;;1.08;;
25982;SDS011;13773;48.868;10.730;2023-07-13T12:45:37;2.88;;;1.50;;
25982;SDS011;13773;48.868;10.730;2023-07-13T12:48:06;2.03;;;1.40;;
25982;SDS011;13773;48.868;10.730;2023-07-13T12:50:40;2.83;;;1.58;;
25982;SDS011;13773;48.868;10.730;2023-07-13T12:53:15;1.70;;;1.20;;
25982;SDS011;13773;48.868;10.730;2023-07-13T12:55:55;4.60;;;1.88;;
25982;SDS011;13773;48.868;10.730;2023-07-13T12:58:37;1.40;;;1.23;;
25982;SDS011;13773;48.868;10.730;2023-07-13T13:01:11;1.92;;;1.30;;
25982;SDS011;13773;48.868;10.730;2023-07-13T13:03:39;2.08;;;1.40;;
25982;SDS011;13773;48.868;10.730;2023-07-13T13:08:45;4.07;;;1.20;;
25982;SDS011;13773;48.868;10.730;2023-07-13T13:11:22;2.28;;;1.65;;
25982;SDS011;13773;48.868;10.730;2023-07-13T13:13:48;2.95;;;1.60;;
25982;SDS011;13773;48.868;10.730;2023-07-13T13:16:32;1.10;;;1.02;;
25982;SDS011;13773;48.868;10.730;2023-07-13T13:19:12;2.70;;;1.50;;
25982;SDS011;13773;48.868;10.730;2023-07-13T13:21:40;1.90;;;1.40;;
25982;SDS011;13773;48.868;10.730;2023-07-13T13:24:12;1.90;;;1.20;;
25982;SDS011;13773;48.868;10.730;2023-07-13T13:26:39;2.03;;;1.25;;
25982;SDS011;13773;48.868;10.730;2023-07-13T13:29:12;3.88;;;1.45;;
25982;SDS011;13773;48.868;10.730;2023-07-13T13:31:39;1.63;;;1.20;;
25982;SDS011;13773;48.868;10.730;2023-07-13T13:34:07;2.75;;;1.55;;
25982;SDS011;13773;48.868;10.730;2023-07-13T13:36:40;1.77;;;1.10;;
25982;SDS011;13773;48.868;10.730;2023-07-13T13:39:20;2.22;;;1.45;;
25982;SDS011;13773;48.868;10.730;2023-07-13T13:41:46;3.80;;;1.38;;
25982;SDS011;13773;48.868;10.730;2023-07-13T13:44:13;2.72;;;1.40;;
25982;SDS011;13773;48.868;10.730;2023-07-13T13:46:41;1.98;;;1.33;;
25982;SDS011;13773;48.868;10.730;2023-07-13T13:49:12;1.33;;;1.23;;
25982;SDS011;13773;48.868;10.730;2023-07-13T13:51:43;2.55;;;1.40;;
25982;SDS011;13773;48.868;10.730;2023-07-13T13:54:10;4.63;;;1.88;;
25982;SDS011;13773;48.868;10.730;2023-07-13T13:56:37;2.72;;;1.70;;
25982;SDS011;13773;48.868;10.730;2023-07-13T13:59:03;2.15;;;1.30;;
25982;SDS011;13773;48.868;10.730;2023-07-13T14:01:29;1.77;;;1.30;;
25982;SDS011;13773;48.868;10.730;2023-07-13T14:03:56;1.85;;;1.20;;
25982;SDS011;13773;48.868;10.730;2023-07-13T14:06:22;1.55;;;1.15;;
25982;SDS011;13773;48.868;10.730;2023-07-13T14:08:48;2.20;;;1.30;;
25982;SDS011;13773;48.868;10.730;2023-07-13T14:11:14;3.30;;;1.30;;
25982;SDS011;13773;48.868;10.730;2023-07-13T14:13:44;3.17;;;1.27;;
25982;SDS011;13773;48.868;10.730;2023-07-13T14:16:17;4.25;;;1.60;;
25982;SDS011;13773;48.868;10.730;2023-07-13T14:18:45;2.03;;;1.30;;
25982;SDS011;13773;48.868;10.730;2023-07-13T14:21:12;1.98;;;1.30;;
25982;SDS011;13773;48.868;10.730;2023-07-13T14:23:46;2.78;;;1.60;;
25982;SDS011;13773;48.868;10.730;2023-07-13T14:26:14;3.80;;;1.40;;
25982;SDS011;13773;48.868;10.730;2023-07-13T14:28:42;2.90;;;1.42;;
25982;SDS011;13773;48.868;10.730;2023-07-13T14:31:09;2.38;;;1.38;;
25982;SDS011;13773;48.868;10.730;2023-07-13T14:33:37;1.75;;;1.42;;
25982;SDS011;13773;48.868;10.730;2023-07-13T14:36:05;1.60;;;1.25;;
25982;SDS011;13773;48.868;10.730;2023-07-13T14:38:50;4.15;;;1.50;;
25982;SDS011;13773;48.868;10.730;2023-07-13T14:41:16;2.00;;;1.08;;
25982;SDS011;13773;48.868;10.730;2023-07-13T14:43:41;2.40;;;1.38;;
25982;SDS011;13773;48.868;10.730;2023-07-13T14:46:08;3.22;;;1.35;;
25982;SDS011;13773;48.868;10.730;2023-07-13T14:48:47;2.20;;;1.30;;
25982;SDS011;13773;48.868;10.730;2023-07-13T14:51:14;3.13;;;1.30;;
25982;SDS011;13773;48.868;10.730;2023-07-13T14:53:40;2.42;;;1.35;;
25982;SDS011;13773;48.868;10.730;2023-07-13T14:56:11;2.25;;;1.33;;
25982;SDS011;13773;48.868;10.730;2023-07-13T14:58:54;1.88;;;1.20;;
25982;SDS011;13773;48.868;10.730;2023-07-13T15:01:20;3.17;;;1.40;;
25982;SDS011;13773;48.868;10.730;2023-07-13T15:03:48;1.58;;;1.20;;
25982;SDS011;13773;48.868;10.730;2023-07-13T15:06:15;2.17;;;1.50;;
25982;SDS011;13773;48.868;10.730;2023-07-13T15:08:42;2.60;;;1.25;;
25982;SDS011;13773;48.868;10.730;2023-07-13T15:11:08;3.42;;;1.50;;
25982;SDS011;13773;48.868;10.730;2023-07-13T15:13:40;2.75;;;1.65;;
25982;SDS011;13773;48.868;10.730;2023-07-13T15:16:23;1.48;;;1.20;;
25982;SDS011;13773;48.868;10.730;2023-07-13T15:18:50;1.80;;;1.50;;
25982;SDS011;13773;48.868;10.730;2023-07-13T15:21:20;5.38;;;1.65;;
25982;SDS011;13773;48.868;10.730;2023-07-13T15:23:49;2.30;;;1.20;;
25982;SDS011;13773;48.868;10.730;2023-07-13T15:26:16;4.32;;;1.63;;
25982;SDS011;13773;48.868;10.730;2023-07-13T15:28:43;2.00;;;1.33;;
25982;SDS011;13773;48.868;10.730;2023-07-13T15:31:20;5.30;;;1.80;;